Data for 06/29/2008

Time Sea-Level Adjusted Pressure Absolute Pressure Temperature Relative Humidity Dew Point   
(mb) (inHg) (mb) (inHg) (C) (F) (%) (C) (F)
00:05 1025 30.27 854 25.22 17.6 63.7 31 0.6 33
00:10 1025 30.27 854 25.22 17.6 63.7 31 0.5 33
00:15 1025 30.27 854 25.22 17.6 63.6 31 0.6 33
00:20 1025 30.27 854 25.22 17.5 63.5 31 0.4 32.8
00:25 1025 30.27 854 25.22 17.4 63.4 32 0.5 32.9
00:30 1025 30.27 854 25.22 17.3 63.1 32 0.7 33.2
00:35 1025 30.27 854 25.22 17.1 62.8 32 0.6 33.1
00:40 1025 30.27 854 25.22 17 62.6 32 0.5 32.9
00:45 1025 30.27 854 25.22 16.9 62.5 33 0.5 32.9
00:50 1025 30.27 854 25.22 16.9 62.5 33 0.5 32.9
00:55 1025 30.27 854 25.22 16.8 62.3 33 0.6 33
01:00 1025 30.27 854 25.22 16.7 62.1 33 0.5 32.9
01:05 1025 30.27 854 25.22 16.7 62 33 0.6 33.1
01:10 1025 30.27 854 25.22 16.5 61.8 33 0.5 32.9
01:15 1025 30.27 854 25.22 16.4 61.6 34 0.5 32.9
01:20 1025 30.27 854 25.22 16.4 61.5 34 0.5 32.9
01:25 1025 30.27 854 25.22 16.4 61.4 34 0.6 33.1
01:30 1025 30.27 854 25.22 16.3 61.3 34 0.5 32.9
01:35 1025 30.27 854 25.22 16.2 61.2 34 0.5 32.9
01:40 1025 30.27 854 25.22 16.2 61.1 34 0.4 32.8
01:45 1025 30.27 854 25.22 16.1 61 34 0.4 32.7
01:50 1025 30.27 854 25.22 16.1 60.9 35 0.5 33
01:55 1025 30.27 854 25.22 16 60.8 34 0.3 32.5
02:00 1025 30.27 854 25.22 16 60.8 35 0.5 32.9
02:05 1025 30.27 854 25.22 15.9 60.6 35 0.6 33.1
02:10 1025 30.27 854 25.22 15.8 60.5 35 0.6 33
02:15 1025 30.27 854 25.22 15.8 60.4 35 0.6 33.1
02:20 1025 30.27 854 25.22 15.6 60.2 36 0.7 33.2
02:25 1025 30.27 854 25.22 15.6 60.1 36 0.6 33.1
02:30 1025 30.27 854 25.22 15.6 60.1 36 0.6 33.1
02:35 1025 30.27 854 25.22 15.7 60.2 35 0.5 32.9
02:40 1025 30.27 854 25.22 15.6 60.1 36 0.8 33.4
02:45 1025 30.27 854 25.22 15.6 60 36 0.7 33.2
02:50 1025 30.27 854 25.22 15.5 59.9 36 0.7 33.3
02:55 1025 30.27 854 25.22 15.5 59.9 36 0.8 33.4
03:00 1025 30.27 854 25.22 15.5 59.9 37 0.9 33.6
03:05 1025 30.27 854 25.22 15.5 60 36 0.8 33.4
03:10 1025 30.27 854 25.22 15.6 60 37 1 33.8
03:15 1025 30.27 854 25.22 15.4 59.7 38 1.1 34
03:20 1025 30.27 854 25.22 15.2 59.4 38 1.2 34.1
03:25 1025 30.27 854 25.22 15.2 59.4 38 1.1 34
03:30 1025 30.27 854 25.22 15.1 59.2 39 1.2 34.2
03:35 1025 30.27 854 25.22 15.1 59.2 39 1.2 34.2
03:40 1025 30.27 854 25.22 15.1 59.2 39 1.3 34.4
03:45 1025 30.27 854 25.22 14.9 58.9 39 1.3 34.4
03:50 1025 30.27 854 25.22 14.9 58.8 40 1.4 34.5
03:55 1025 30.27 854 25.22 14.8 58.6 41 1.6 34.9
04:00 1025 30.27 854 25.22 14.6 58.3 41 1.7 35
04:05 1025 30.27 854 25.22 14.5 58.1 42 1.7 35.1
04:10 1025 30.27 854 25.22 14.5 58.1 41 1.5 34.7
04:15 1025 30.27 854 25.22 14.5 58.2 41 1.5 34.7
04:20 1025 30.27 854 25.22 14.5 58.1 42 1.7 35
04:25 1025 30.27 854 25.22 14.4 57.9 42 1.6 34.9
04:30 1025 30.27 854 25.22 14.3 57.8 42 1.8 35.3
04:35 1025 30.27 854 25.22 14.2 57.5 43 1.8 35.2
04:40 1025 30.27 854 25.22 14 57.3 44 2 35.5
04:45 1025 30.27 854 25.22 13.8 56.8 44 1.9 35.5
04:50 1025 30.27 854 25.22 13.7 56.6 45 1.9 35.4
04:55 1025 30.27 854 25.22 13.6 56.5 45 2 35.6
05:00 1025 30.27 854 25.22 13.6 56.4 45 1.9 35.5
05:05 1025 30.27 854 25.22 13.6 56.5 45 2 35.6
05:10 1025 30.27 854 25.22 13.6 56.4 46 2.2 36
05:15 1025 30.27 854 25.22 13.5 56.3 46 2.3 36.1
05:20 1025 30.27 854 25.22 13.5 56.2 46 2.3 36.1
05:25 1025 30.27 854 25.22 13.5 56.3 46 2.3 36.1
05:30 1025 30.27 854 25.22 13.5 56.4 46 2.2 36
05:35 1025 30.27 854 25.22 13.5 56.4 47 2.4 36.3
05:40 1025 30.27 854 25.22 13.6 56.5 47 2.5 36.5
05:45 1025 30.27 854 25.22 13.6 56.4 47 2.7 36.8
05:50 1025 30.27 854 25.22 13.4 56.1 49 3 37.4
05:55 1025 30.27 854 25.22 13.2 55.8 50 3 37.4
06:00 1025 30.27 854 25.22 13.1 55.6 53 3.9 39
06:05 1025 30.27 854 25.22 12.9 55.2 53 3.6 38.5
06:10 1025 30.27 854 25.22 13.1 55.6 52 3.6 38.5
06:15 1025 30.27 854 25.22 13.3 56 51 3.6 38.4
06:20 1025 30.27 854 25.22 13.5 56.2 51 3.6 38.5
06:25 1025 30.27 854 25.22 13.5 56.3 51 3.5 38.3
06:30 1025 30.27 854 25.22 13.5 56.3 49 3.1 37.7
06:35 1025 30.27 854 25.22 13.8 56.8 48 3.1 37.6
06:40 1025 30.27 854 25.22 13.9 57 50 3.6 38.6
06:45 1025 30.27 854 25.22 13.8 56.9 50 3.6 38.6
06:50 1025 30.27 854 25.22 13.9 57.1 48 3.3 38
06:55 1025 30.27 854 25.22 14.2 57.6 49 3.8 38.9
07:00 1025 30.27 854 25.22 14.3 57.7 49 3.8 38.8
07:05 1025 30.27 854 25.22 14.5 58 48 3.7 38.6
07:10 1025 30.27 854 25.22 14.7 58.5 47 3.5 38.3
07:15 1025 30.27 854 25.22 14.8 58.6 48 4 39.2
07:20 1025 30.27 854 25.22 15 59 47 4 39.1
07:25 1025 30.27 854 25.22 15.1 59.1 48 4.1 39.4
07:30 1025 30.27 854 25.22 15.3 59.5 48 4.3 39.8
07:35 1025 30.27 854 25.22 15.4 59.8 48 4.6 40.3
07:40 1025 30.27 854 25.22 15.6 60.2 46 4.2 39.6
07:45 1025 30.27 854 25.22 16 60.8 44 4 39.2
07:50 1025 30.27 855 25.25 16.3 61.3 43 3.9 39
07:55 1025 30.27 855 25.25 16.5 61.8 44 4.3 39.7
08:00 1025 30.27 855 25.25 16.8 62.3 43 4.4 39.9
08:05 1025 30.27 855 25.25 17.3 63.1 42 4.4 39.9
08:10 1025 30.27 855 25.25 17.6 63.8 41 4.5 40.1
08:15 1025 30.27 855 25.25 18.2 64.7 40 4.6 40.3
08:20 1025 30.27 855 25.25 18.3 64.9 39 4.4 39.9
08:25 1025 30.27 855 25.25 18.2 64.7 40 4.7 40.4
08:30 1025 30.27 855 25.25 18.2 64.8 40 4.7 40.5
08:35 1025 30.27 855 25.25 18.7 65.6 38 4.4 39.9
08:40 1025 30.27 855 25.25 18.9 66 39 4.8 40.6
08:45 1025 30.27 855 25.25 19 66.1 38 4.3 39.8
08:50 1025 30.27 855 25.25 19.3 66.7 38 4.8 40.7
08:55 1025 30.27 855 25.25 19.6 67.3 37 4.7 40.5
09:00 1025 30.27 855 25.25 20 68 36 4.7 40.5
09:05 1025 30.27 855 25.25 20.5 68.8 35 4.5 40.2
09:10 1025 30.27 855 25.25 20.6 69 36 5 41.1
09:15 1025 30.27 855 25.25 20.4 68.7 37 5.3 41.5
09:20 1025 30.27 855 25.25 20.5 68.8 35 4.5 40.1
09:25 1025 30.27 855 25.25 20.4 68.7 36 5 40.9
09:30 1025 30.27 855 25.25 20.8 69.4 34 4.5 40.1
09:35 1025 30.27 855 25.25 20.4 68.7 35 4.6 40.2
09:40 1025 30.27 854 25.22 20.6 69.2 34 4.3 39.7
09:45 1025 30.27 855 25.25 21.6 70.8 34 5.1 41.2
09:50 1025 30.27 855 25.25 21.7 71.1 33 5.1 41.1
09:55 1025 30.27 855 25.25 22 71.6 33 5 41
10:00 1025 30.27 854 25.22 22 71.5 33 5.3 41.5
10:05 1025 30.27 854 25.22 22.2 72 31 4.5 40
10:10 1025 30.27 854 25.22 23.2 73.7 31 5.4 41.7
10:15 1025 30.27 854 25.22 23.6 74.5 30 5.2 41.4
10:20 1025 30.27 854 25.22 23.2 73.7 32 5.6 42.1
10:25 1025 30.27 854 25.22 23.5 74.2 29 4.8 40.7
10:30 1025 30.27 854 25.22 24 75.1 30 5.7 42.3
10:35 1025 30.27 854 25.22 23.5 74.2 30 5.2 41.4
10:40 1025 30.27 854 25.22 23.5 74.3 30 5.3 41.5
10:45 1025 30.27 854 25.22 23.8 74.9 30 5.6 42.1
10:50 1025 30.27 854 25.22 23.8 74.9 30 5.6 42.1
10:55 1025 30.27 854 25.22 24.6 76.3 29 5.8 42.4
11:00 1025 30.27 854 25.22 24.1 75.5 29 5.5 41.8
11:05 1025 30.27 854 25.22 24.9 76.8 29 5.8 42.4
11:10 1025 30.27 854 25.22 24.9 76.9 30 6.4 43.5
11:15 1025 30.27 854 25.22 23.4 74.1 32 6 42.8
11:20 1025 30.27 854 25.22 23.7 74.7 30 5.3 41.6
11:25 1025 30.27 854 25.22 24.9 76.9 29 5.7 42.3
11:30 1025 30.27 854 25.22 25.1 77.2 30 6.8 44.2
11:35 1025 30.27 854 25.22 25 77 29 5.9 42.7
11:40 1025 30.27 854 25.22 26 78.8 27 5.9 42.7
11:45 1025 30.27 854 25.22 26.2 79.1 29 6.8 44.2
11:50 1025 30.27 854 25.22 26.8 80.2 26 6.1 43
11:55 1025 30.27 854 25.22 25.5 78 29 6.6 43.9
12:00 1025 30.27 854 25.22 25.2 77.4 30 6.9 44.4
12:05 1025 30.27 854 25.22 25.3 77.6 30 6.6 43.8
12:10 1025 30.27 854 25.22 25.2 77.4 29 6.1 42.9
12:15 1024 30.24 854 25.22 25.4 77.7 29 6.5 43.8
12:20 1024 30.24 854 25.22 25 77 30 6.4 43.6
12:25 1024 30.24 854 25.22 25.7 78.2 29 6.4 43.4
12:30 1024 30.24 853 25.19 27.1 80.7 26 6.4 43.5
12:35 1024 30.24 853 25.19 26.7 80.1 28 7 44.6
12:40 1024 30.24 853 25.19 26.8 80.3 28 6.9 44.5
12:45 1024 30.24 853 25.19 26.5 79.8 28 6.9 44.3
12:50 1024 30.24 853 25.19 26.3 79.3 28 6.7 44.1
12:55 1024 30.24 853 25.19 26.8 80.3 27 6.5 43.6
13:00 1024 30.24 853 25.19 28.1 82.5 25 6.6 43.9
13:05 1024 30.24 853 25.19 27.2 80.9 27 7 44.6
13:10 1024 30.24 853 25.19 27.4 81.3 26 6.5 43.7
13:15 1024 30.24 853 25.19 28 82.3 26 6.7 44.1
13:20 1024 30.24 853 25.19 28.5 83.3 25 7.1 44.7
13:25 1024 30.24 853 25.19 28.7 83.6 26 7.6 45.6
13:30 1024 30.24 853 25.19 27.9 82.3 25 6.6 43.8
13:35 1024 30.24 853 25.19 28.8 83.8 25 7.3 45.1
13:40 1024 30.24 853 25.19 28.1 82.6 25 6.7 44
13:45 1024 30.24 853 25.19 29.3 84.7 24 6.9 44.5
13:50 1024 30.24 853 25.19 29.1 84.3 24 6.6 43.8
13:55 1024 30.24 853 25.19 28.5 83.4 23 5.5 41.8
14:00 1024 30.24 853 25.19 29.9 85.8 22 6.1 42.9
14:05 1024 30.24 853 25.19 30.7 87.2 22 6.7 44
14:10 1023 30.21 853 25.19 31 87.7 21 6.7 44
14:15 1023 30.21 853 25.19 29.7 85.4 23 6.4 43.5
14:20 1023 30.21 853 25.19 29 84.2 23 5.9 42.7
14:25 1023 30.21 853 25.19 29.9 85.8 21 5.5 41.9
14:30 1023 30.21 853 25.19 29.9 85.9 23 6.9 44.5
14:35 1023 30.21 852 25.16 29.4 84.9 21 5.5 41.8
14:40 1023 30.21 852 25.16 29.8 85.6 22 6.2 43.1
14:45 1023 30.21 852 25.16 29.7 85.5 22 5.9 42.7
14:50 1023 30.21 852 25.16 30.2 86.4 21 5.9 42.7
14:55 1023 30.21 852 25.16 30.5 87 21 6.2 43.2
15:00 1023 30.21 852 25.16 30.4 86.7 22 6.6 43.8
15:05 1023 30.21 852 25.16 31.1 87.9 21 6.4 43.4
15:10 1023 30.21 852 25.16 31.1 87.9 21 6.7 44.1
15:15 1023 30.21 852 25.16 30.4 86.7 19 4.7 40.4
15:20 1023 30.21 852 25.16 31.1 87.9 20 5.9 42.6
15:25 1023 30.21 852 25.16 30.7 87.2 19 4.7 40.5
15:30 1023 30.21 852 25.16 31.2 88.1 19 5.3 41.6
15:35 1023 30.21 852 25.16 30.7 87.3 19 4.8 40.6
15:40 1023 30.21 852 25.16 31 87.7 18 4.4 39.9
15:45 1023 30.21 852 25.16 31.4 88.6 17 4.2 39.6
15:50 1023 30.21 852 25.16 31.4 88.5 17 4 39.3
15:55 1023 30.21 852 25.16 31.8 89.3 16 3.2 37.8
16:00 1023 30.21 852 25.16 32.3 90.1 16 4.1 39.3
16:05 1023 30.21 852 25.16 32.2 90 19 5.8 42.5
16:10 1023 30.21 852 25.16 31.6 88.9 19 5.6 42.1
16:15 1023 30.21 852 25.16 31.3 88.3 18 4.6 40.3
16:20 1023 30.21 852 25.16 31.2 88.1 18 4.6 40.2
16:25 1023 30.21 852 25.16 31.8 89.3 18 5 41.1
16:30 1023 30.21 852 25.16 32.3 90.2 18 5.4 41.7
16:35 1023 30.21 852 25.16 31.9 89.4 20 6.3 43.4
16:40 1023 30.21 852 25.16 31.2 88.2 19 4.9 40.9
16:45 1022 30.18 852 25.16 32.4 90.4 18 5.2 41.3
16:50 1022 30.18 852 25.16 32.5 90.6 18 5.7 42.3
16:55 1022 30.18 852 25.16 32.6 90.6 16 3.6 38.5
17:00 1022 30.18 852 25.16 32.5 90.5 17 4.3 39.8
17:05 1022 30.18 852 25.16 32.2 90 18 5.4 41.7
17:10 1022 30.18 852 25.16 31.1 87.9 18 4.3 39.7
17:15 1022 30.18 851 25.13 30.6 87.1 18 3.7 38.6
17:20 1022 30.18 851 25.13 31.2 88.1 16 2.8 37
17:25 1022 30.18 851 25.13 31.8 89.2 15 2.4 36.3
17:30 1022 30.18 851 25.13 32.3 90.2 15 2.7 36.9
17:35 1022 30.18 851 25.13 32.5 90.5 15 2.7 36.9
17:40 1022 30.18 851 25.13 31.7 89 15 2.5 36.4
17:45 1022 30.18 851 25.13 31.8 89.3 16 2.9 37.2
17:50 1022 30.18 851 25.13 32 89.6 15 2.7 36.8
17:55 1022 30.18 851 25.13 32.1 89.8 15 2.2 35.9
18:00 1022 30.18 851 25.13 32 89.6 14 2 35.6
18:05 1022 30.18 851 25.13 32.2 89.9 14 2.1 35.8
18:10 1022 30.18 851 25.13 31.5 88.7 15 2.5 36.5
18:15 1022 30.18 851 25.13 31.3 88.3 15 1.6 34.9
18:20 1021 30.15 851 25.13 31.1 87.9 14 0.7 33.2
18:25 1021 30.15 851 25.13 31.7 89 14 1.2 34.1
18:30 1021 30.15 851 25.13 31.4 88.5 14 1.1 34
18:35 1021 30.15 851 25.13 31.3 88.4 14 1 33.9
18:40 1021 30.15 851 25.13 31.2 88.2 14 1 33.7
18:45 1021 30.15 851 25.13 31.4 88.5 14 1.1 33.9
18:50 1021 30.15 850 25.1 31.6 88.9 14 1.6 34.9
18:55 1021 30.15 850 25.1 31.4 88.6 14 1.3 34.3
19:00 1021 30.15 850 25.1 31.8 89.2 14 1.4 34.6
19:05 1021 30.15 850 25.1 32 89.6 14 1.5 34.7
19:10 1021 30.15 850 25.1 31.7 89.1 15 2.1 35.8
19:15 1021 30.15 850 25.1 31.8 89.3 15 2 35.6
19:20 1021 30.15 850 25.1 32.4 90.4 14 2 35.6
19:25 1021 30.15 850 25.1 32.5 90.5 14 2.3 36.2
19:30 1021 30.15 850 25.1 31.8 89.3 15 2.7 36.9
19:35 1021 30.15 850 25.1 31.3 88.3 15 2 35.6
19:40 1021 30.15 850 25.1 30.7 87.2 17 3.3 37.9
19:45 1021 30.15 850 25.1 30.5 87 16 1.8 35.3
19:50 1021 30.15 850 25.1 30.4 86.7 16 1.7 35.1
19:55 1021 30.15 850 25.1 30.2 86.3 16 2.1 35.7
20:00 1021 30.15 850 25.1 30 86.1 16 2.1 35.7
20:05 1021 30.15 850 25.1 30 85.9 15 1.1 33.9
20:10 1021 30.15 850 25.1 29.7 85.5 17 2.6 36.8
20:15 1021 30.15 850 25.1 29 84.1 26 7.6 45.7
20:20 1021 30.15 850 25.1 28 82.4 27 7.8 46.1
20:25 1021 30.15 850 25.1 27.4 81.3 28 7.6 45.7
20:30 1021 30.15 850 25.1 27.1 80.7 28 7.5 45.5
20:35 1021 30.15 850 25.1 26.8 80.3 28 6.9 44.3
20:40 1021 30.15 850 25.1 26.8 80.2 27 6.7 44.1
20:45 1021 30.15 851 25.13 26.6 79.8 28 7.1 44.8
20:50 1021 30.15 851 25.13 26.3 79.3 29 7.1 44.7
20:55 1021 30.15 851 25.13 26.1 78.9 29 6.8 44.2
21:00 1021 30.15 851 25.13 25.9 78.6 29 6.9 44.3
21:05 1021 30.15 851 25.13 25.7 78.2 30 6.9 44.4
21:10 1021 30.15 851 25.13 25.7 78.3 30 7 44.5
21:15 1021 30.15 851 25.13 25.4 77.8 30 6.8 44.2
21:20 1021 30.15 851 25.13 25.5 77.8 30 6.7 44
21:25 1021 30.15 851 25.13 25.4 77.6 30 6.8 44.2
21:30 1021 30.15 851 25.13 25.1 77.2 31 7 44.6
21:35 1022 30.18 851 25.13 24.8 76.6 31 6.9 44.4
21:40 1022 30.18 851 25.13 24.7 76.5 31 6.6 43.9
21:45 1022 30.18 851 25.13 24.8 76.7 31 6.6 43.9
21:50 1022 30.18 851 25.13 24.8 76.6 30 6.5 43.7
21:55 1022 30.18 851 25.13 24.8 76.6 31 6.5 43.8
22:00 1022 30.18 851 25.13 24.8 76.6 30 6.4 43.5
22:05 1022 30.18 851 25.13 24.7 76.4 31 6.5 43.6
22:10 1022 30.18 851 25.13 24.5 76.1 31 6.3 43.3
22:15 1022 30.18 851 25.13 24.6 76.2 30 6.3 43.4
22:20 1022 30.18 851 25.13 24.6 76.2 30 6.3 43.3
22:25 1022 30.18 851 25.13 24.6 76.2 30 6 42.8
22:30 1022 30.18 851 25.13 24.4 76 31 6.2 43.2
22:35 1022 30.18 851 25.13 24.3 75.8 31 6.2 43.2
22:40 1022 30.18 851 25.13 24.2 75.6 31 6.1 43
22:45 1022 30.18 851 25.13 24.2 75.6 31 6.1 43
22:50 1022 30.18 851 25.13 24.2 75.5 31 6 42.8
22:55 1022 30.18 851 25.13 24 75.2 31 6 42.8
23:00 1022 30.18 851 25.13 23.9 74.9 31 5.9 42.6
23:05 1022 30.18 851 25.13 23.8 74.8 31 5.9 42.7
23:10 1022 30.18 851 25.13 23.7 74.7 31 5.7 42.3
23:15 1022 30.18 851 25.13 23.7 74.7 31 6 42.8
23:20 1022 30.18 851 25.13 23.5 74.2 32 5.8 42.5
23:25 1022 30.18 851 25.13 23.5 74.3 31 5.7 42.3
23:30 1022 30.18 851 25.13 23.5 74.3 32 5.9 42.7
23:35 1022 30.18 851 25.13 23.4 74.1 32 5.9 42.6
23:40 1022 30.18 851 25.13 23.3 73.9 32 6.1 42.9
23:45 1022 30.18 851 25.13 23.1 73.6 33 6.1 43
23:50 1022 30.18 851 25.13 23 73.3 33 6.1 43.1
23:55 1022 30.18 851 25.13 22.7 72.9 34 6.2 43.2
24:00 1022 30.18 852 25.16 22.4 72.2 38 7.6 45.8